sensor_id;sensor_type;location;lat;lon;timestamp;P1;durP1;ratioP1;P2;durP2;ratioP2
78108;SDS011;67354;48.068;11.612;2023-01-29T00:00:03;21.67;;;11.33;;
78108;SDS011;67354;48.068;11.612;2023-01-29T00:02:34;25.55;;;11.32;;
78108;SDS011;67354;48.068;11.612;2023-01-29T00:04:59;21.70;;;11.55;;
78108;SDS011;67354;48.068;11.612;2023-01-29T00:07:25;19.92;;;10.55;;
78108;SDS011;67354;48.068;11.612;2023-01-29T00:09:51;21.20;;;11.70;;
78108;SDS011;67354;48.068;11.612;2023-01-29T00:12:17;24.95;;;12.15;;
78108;SDS011;67354;48.068;11.612;2023-01-29T00:14:42;22.30;;;12.07;;
78108;SDS011;67354;48.068;11.612;2023-01-29T00:17:07;23.47;;;12.63;;
78108;SDS011;67354;48.068;11.612;2023-01-29T00:19:34;23.20;;;11.27;;
78108;SDS011;67354;48.068;11.612;2023-01-29T00:21:59;20.42;;;11.48;;
78108;SDS011;67354;48.068;11.612;2023-01-29T00:24:25;25.58;;;13.43;;
78108;SDS011;67354;48.068;11.612;2023-01-29T00:26:50;21.07;;;12.23;;
78108;SDS011;67354;48.068;11.612;2023-01-29T00:29:16;24.40;;;11.50;;
78108;SDS011;67354;48.068;11.612;2023-01-29T00:31:42;20.67;;;11.43;;
78108;SDS011;67354;48.068;11.612;2023-01-29T00:34:08;23.15;;;12.85;;
78108;SDS011;67354;48.068;11.612;2023-01-29T00:36:34;23.77;;;12.53;;
78108;SDS011;67354;48.068;11.612;2023-01-29T00:39:00;26.70;;;12.63;;
78108;SDS011;67354;48.068;11.612;2023-01-29T00:41:31;21.80;;;11.50;;
78108;SDS011;67354;48.068;11.612;2023-01-29T00:44:15;24.55;;;12.68;;
78108;SDS011;67354;48.068;11.612;2023-01-29T00:46:59;24.85;;;12.70;;
78108;SDS011;67354;48.068;11.612;2023-01-29T00:49:24;25.08;;;12.40;;
78108;SDS011;67354;48.068;11.612;2023-01-29T00:51:50;24.38;;;13.35;;
78108;SDS011;67354;48.068;11.612;2023-01-29T00:54:34;25.80;;;12.55;;
78108;SDS011;67354;48.068;11.612;2023-01-29T00:57:00;22.00;;;11.43;;
78108;SDS011;67354;48.068;11.612;2023-01-29T00:59:26;18.45;;;9.77;;
78108;SDS011;67354;48.068;11.612;2023-01-29T01:01:51;17.20;;;10.17;;
78108;SDS011;67354;48.068;11.612;2023-01-29T01:04:35;18.10;;;9.77;;
78108;SDS011;67354;48.068;11.612;2023-01-29T01:07:00;15.27;;;8.97;;
78108;SDS011;67354;48.068;11.612;2023-01-29T01:09:26;17.17;;;9.47;;
78108;SDS011;67354;48.068;11.612;2023-01-29T01:12:10;17.90;;;9.23;;
78108;SDS011;67354;48.068;11.612;2023-01-29T01:14:35;16.08;;;9.65;;
78108;SDS011;67354;48.068;11.612;2023-01-29T01:17:00;16.83;;;9.70;;
78108;SDS011;67354;48.068;11.612;2023-01-29T01:19:26;16.45;;;9.68;;
78108;SDS011;67354;48.068;11.612;2023-01-29T01:21:51;15.53;;;9.43;;
78108;SDS011;67354;48.068;11.612;2023-01-29T01:24:16;16.83;;;9.57;;
78108;SDS011;67354;48.068;11.612;2023-01-29T01:26:42;21.27;;;10.43;;
78108;SDS011;67354;48.068;11.612;2023-01-29T01:29:07;18.43;;;9.53;;
78108;SDS011;67354;48.068;11.612;2023-01-29T01:31:33;16.63;;;9.18;;
78108;SDS011;67354;48.068;11.612;2023-01-29T01:33:58;17.55;;;9.25;;
78108;SDS011;67354;48.068;11.612;2023-01-29T01:36:23;14.05;;;8.40;;
78108;SDS011;67354;48.068;11.612;2023-01-29T01:38:49;16.23;;;8.53;;
78108;SDS011;67354;48.068;11.612;2023-01-29T01:41:15;16.87;;;9.00;;
78108;SDS011;67354;48.068;11.612;2023-01-29T01:43:46;15.43;;;9.13;;
78108;SDS011;67354;48.068;11.612;2023-01-29T01:46:19;16.77;;;8.90;;
78108;SDS011;67354;48.068;11.612;2023-01-29T01:48:46;14.55;;;8.50;;
78108;SDS011;67354;48.068;11.612;2023-01-29T01:51:15;17.95;;;9.13;;
78108;SDS011;67354;48.068;11.612;2023-01-29T01:53:55;14.32;;;8.63;;
78108;SDS011;67354;48.068;11.612;2023-01-29T01:56:27;12.95;;;7.75;;
78108;SDS011;67354;48.068;11.612;2023-01-29T01:59:02;16.00;;;8.88;;
78108;SDS011;67354;48.068;11.612;2023-01-29T02:01:28;18.67;;;9.68;;
78108;SDS011;67354;48.068;11.612;2023-01-29T02:03:58;15.63;;;9.13;;
78108;SDS011;67354;48.068;11.612;2023-01-29T02:06:44;16.70;;;9.48;;
78108;SDS011;67354;48.068;11.612;2023-01-29T02:09:30;14.75;;;9.00;;
78108;SDS011;67354;48.068;11.612;2023-01-29T02:12:11;16.38;;;8.05;;
78108;SDS011;67354;48.068;11.612;2023-01-29T02:14:38;16.38;;;8.80;;
78108;SDS011;67354;48.068;11.612;2023-01-29T02:17:08;12.50;;;8.27;;
78108;SDS011;67354;48.068;11.612;2023-01-29T02:19:38;16.13;;;8.88;;
78108;SDS011;67354;48.068;11.612;2023-01-29T02:22:19;13.98;;;8.27;;
78108;SDS011;67354;48.068;11.612;2023-01-29T02:27:38;16.02;;;8.80;;
78108;SDS011;67354;48.068;11.612;2023-01-29T02:36:07;14.48;;;9.02;;
78108;SDS011;67354;48.068;11.612;2023-01-29T02:41:27;14.40;;;8.15;;
78108;SDS011;67354;48.068;11.612;2023-01-29T02:46:44;16.20;;;8.63;;
78108;SDS011;67354;48.068;11.612;2023-01-29T02:52:03;14.95;;;8.95;;
78108;SDS011;67354;48.068;11.612;2023-01-29T02:54:44;12.40;;;7.60;;
78108;SDS011;67354;48.068;11.612;2023-01-29T02:57:17;15.07;;;7.97;;
78108;SDS011;67354;48.068;11.612;2023-01-29T02:59:50;13.52;;;8.35;;
78108;SDS011;67354;48.068;11.612;2023-01-29T03:08:10;16.75;;;9.55;;
78108;SDS011;67354;48.068;11.612;2023-01-29T03:10:42;19.02;;;9.23;;
78108;SDS011;67354;48.068;11.612;2023-01-29T03:13:19;14.05;;;8.65;;
78108;SDS011;67354;48.068;11.612;2023-01-29T03:15:51;18.13;;;9.82;;
78108;SDS011;67354;48.068;11.612;2023-01-29T03:18:25;20.17;;;11.05;;
78108;SDS011;67354;48.068;11.612;2023-01-29T03:20:55;14.80;;;9.50;;
78108;SDS011;67354;48.068;11.612;2023-01-29T03:23:29;17.38;;;10.18;;
78108;SDS011;67354;48.068;11.612;2023-01-29T03:26:15;16.23;;;9.63;;
78108;SDS011;67354;48.068;11.612;2023-01-29T03:29:02;15.43;;;9.95;;
78108;SDS011;67354;48.068;11.612;2023-01-29T03:31:46;16.67;;;9.27;;
78108;SDS011;67354;48.068;11.612;2023-01-29T03:34:27;18.13;;;10.25;;
78108;SDS011;67354;48.068;11.612;2023-01-29T03:40:02;18.00;;;9.52;;
78108;SDS011;67354;48.068;11.612;2023-01-29T03:48:05;20.95;;;11.43;;
78108;SDS011;67354;48.068;11.612;2023-01-29T03:53:57;20.55;;;11.40;;
78108;SDS011;67354;48.068;11.612;2023-01-29T04:01:39;17.02;;;8.82;;
78108;SDS011;67354;48.068;11.612;2023-01-29T04:04:13;19.65;;;10.70;;
78108;SDS011;67354;48.068;11.612;2023-01-29T04:06:42;18.42;;;10.07;;
78108;SDS011;67354;48.068;11.612;2023-01-29T04:09:11;18.65;;;10.98;;
78108;SDS011;67354;48.068;11.612;2023-01-29T04:11:41;19.70;;;10.85;;
78108;SDS011;67354;48.068;11.612;2023-01-29T04:14:14;19.95;;;11.43;;
78108;SDS011;67354;48.068;11.612;2023-01-29T04:16:40;20.83;;;11.27;;
78108;SDS011;67354;48.068;11.612;2023-01-29T04:19:08;22.42;;;10.32;;
78108;SDS011;67354;48.068;11.612;2023-01-29T04:21:33;21.73;;;10.90;;
78108;SDS011;67354;48.068;11.612;2023-01-29T04:24:01;21.38;;;11.57;;
78108;SDS011;67354;48.068;11.612;2023-01-29T04:29:34;21.67;;;10.70;;
78108;SDS011;67354;48.068;11.612;2023-01-29T04:32:14;22.13;;;11.05;;
78108;SDS011;67354;48.068;11.612;2023-01-29T04:34:47;20.23;;;12.10;;
78108;SDS011;67354;48.068;11.612;2023-01-29T04:37:16;19.45;;;10.88;;
78108;SDS011;67354;48.068;11.612;2023-01-29T04:39:53;12.10;;;7.18;;
78108;SDS011;67354;48.068;11.612;2023-01-29T04:42:33;12.52;;;6.43;;
78108;SDS011;67354;48.068;11.612;2023-01-29T04:47:37;13.10;;;8.02;;
78108;SDS011;67354;48.068;11.612;2023-01-29T04:55:34;16.13;;;9.93;;
78108;SDS011;67354;48.068;11.612;2023-01-29T05:00:39;18.83;;;9.82;;
78108;SDS011;67354;48.068;11.612;2023-01-29T05:03:07;25.27;;;12.00;;
78108;SDS011;67354;48.068;11.612;2023-01-29T05:05:35;21.27;;;11.13;;
78108;SDS011;67354;48.068;11.612;2023-01-29T05:08:03;21.83;;;12.00;;
78108;SDS011;67354;48.068;11.612;2023-01-29T05:10:29;19.42;;;11.38;;
78108;SDS011;67354;48.068;11.612;2023-01-29T05:13:01;18.52;;;10.93;;
78108;SDS011;67354;48.068;11.612;2023-01-29T05:15:38;24.02;;;11.60;;
78108;SDS011;67354;48.068;11.612;2023-01-29T05:18:06;20.52;;;11.23;;
78108;SDS011;67354;48.068;11.612;2023-01-29T05:20:33;19.73;;;11.07;;
78108;SDS011;67354;48.068;11.612;2023-01-29T05:23:01;18.30;;;10.50;;
78108;SDS011;67354;48.068;11.612;2023-01-29T05:25:28;17.63;;;10.73;;
78108;SDS011;67354;48.068;11.612;2023-01-29T05:27:55;17.73;;;10.15;;
78108;SDS011;67354;48.068;11.612;2023-01-29T05:30:40;18.92;;;10.18;;
78108;SDS011;67354;48.068;11.612;2023-01-29T05:33:12;14.20;;;8.02;;
78108;SDS011;67354;48.068;11.612;2023-01-29T05:35:38;12.25;;;6.28;;
78108;SDS011;67354;48.068;11.612;2023-01-29T05:38:03;11.07;;;5.70;;
78108;SDS011;67354;48.068;11.612;2023-01-29T05:40:29;8.50;;;5.00;;
78108;SDS011;67354;48.068;11.612;2023-01-29T05:42:54;18.53;;;9.80;;
78108;SDS011;67354;48.068;11.612;2023-01-29T05:45:19;16.88;;;9.73;;
78108;SDS011;67354;48.068;11.612;2023-01-29T05:47:45;18.80;;;10.00;;
78108;SDS011;67354;48.068;11.612;2023-01-29T05:50:11;16.15;;;9.63;;
78108;SDS011;67354;48.068;11.612;2023-01-29T05:52:37;17.80;;;9.85;;
78108;SDS011;67354;48.068;11.612;2023-01-29T05:55:03;18.63;;;10.82;;
78108;SDS011;67354;48.068;11.612;2023-01-29T05:57:29;16.52;;;9.65;;
78108;SDS011;67354;48.068;11.612;2023-01-29T05:59:54;14.47;;;8.67;;
78108;SDS011;67354;48.068;11.612;2023-01-29T06:02:19;18.90;;;8.97;;
78108;SDS011;67354;48.068;11.612;2023-01-29T06:04:45;18.50;;;9.80;;
78108;SDS011;67354;48.068;11.612;2023-01-29T06:07:10;17.60;;;9.07;;
78108;SDS011;67354;48.068;11.612;2023-01-29T06:09:36;18.10;;;9.20;;
78108;SDS011;67354;48.068;11.612;2023-01-29T06:12:01;18.20;;;10.77;;
78108;SDS011;67354;48.068;11.612;2023-01-29T06:14:27;16.92;;;9.38;;
78108;SDS011;67354;48.068;11.612;2023-01-29T06:16:52;20.40;;;10.85;;
78108;SDS011;67354;48.068;11.612;2023-01-29T06:19:17;23.17;;;11.47;;
78108;SDS011;67354;48.068;11.612;2023-01-29T06:21:44;19.40;;;10.55;;
78108;SDS011;67354;48.068;11.612;2023-01-29T06:24:10;16.90;;;10.40;;
78108;SDS011;67354;48.068;11.612;2023-01-29T06:26:35;18.15;;;9.98;;
78108;SDS011;67354;48.068;11.612;2023-01-29T06:29:00;17.27;;;10.37;;
78108;SDS011;67354;48.068;11.612;2023-01-29T06:31:26;21.90;;;11.77;;
78108;SDS011;67354;48.068;11.612;2023-01-29T06:33:51;18.40;;;10.20;;
78108;SDS011;67354;48.068;11.612;2023-01-29T06:36:16;15.53;;;9.47;;
78108;SDS011;67354;48.068;11.612;2023-01-29T06:38:42;14.43;;;8.67;;
78108;SDS011;67354;48.068;11.612;2023-01-29T06:41:10;16.73;;;8.20;;
78108;SDS011;67354;48.068;11.612;2023-01-29T06:43:37;14.05;;;7.80;;
78108;SDS011;67354;48.068;11.612;2023-01-29T06:46:05;13.20;;;7.95;;
78108;SDS011;67354;48.068;11.612;2023-01-29T06:48:31;12.98;;;7.70;;
78108;SDS011;67354;48.068;11.612;2023-01-29T06:51:00;16.73;;;8.97;;
78108;SDS011;67354;48.068;11.612;2023-01-29T06:53:26;12.95;;;7.18;;
78108;SDS011;67354;48.068;11.612;2023-01-29T06:55:52;13.95;;;7.93;;
78108;SDS011;67354;48.068;11.612;2023-01-29T06:58:18;8.02;;;5.25;;
78108;SDS011;67354;48.068;11.612;2023-01-29T07:00:44;6.60;;;3.88;;
78108;SDS011;67354;48.068;11.612;2023-01-29T07:03:09;7.83;;;3.93;;
78108;SDS011;67354;48.068;11.612;2023-01-29T07:05:35;6.10;;;4.30;;
78108;SDS011;67354;48.068;11.612;2023-01-29T07:08:01;7.70;;;4.18;;
78108;SDS011;67354;48.068;11.612;2023-01-29T07:10:26;9.57;;;3.83;;
78108;SDS011;67354;48.068;11.612;2023-01-29T07:12:51;5.67;;;3.63;;
78108;SDS011;67354;48.068;11.612;2023-01-29T07:15:17;7.80;;;4.35;;
78108;SDS011;67354;48.068;11.612;2023-01-29T07:18:05;8.15;;;4.47;;
78108;SDS011;67354;48.068;11.612;2023-01-29T07:20:36;8.05;;;4.82;;
78108;SDS011;67354;48.068;11.612;2023-01-29T07:23:02;7.47;;;3.85;;
78108;SDS011;67354;48.068;11.612;2023-01-29T07:25:27;10.30;;;4.70;;
78108;SDS011;67354;48.068;11.612;2023-01-29T07:27:54;6.90;;;4.68;;
78108;SDS011;67354;48.068;11.612;2023-01-29T07:30:19;8.77;;;4.22;;
78108;SDS011;67354;48.068;11.612;2023-01-29T07:32:45;11.98;;;6.65;;
78108;SDS011;67354;48.068;11.612;2023-01-29T07:35:10;13.45;;;6.95;;
78108;SDS011;67354;48.068;11.612;2023-01-29T07:37:36;12.38;;;7.35;;
78108;SDS011;67354;48.068;11.612;2023-01-29T07:40:01;9.48;;;5.25;;
78108;SDS011;67354;48.068;11.612;2023-01-29T07:42:29;7.10;;;4.70;;
78108;SDS011;67354;48.068;11.612;2023-01-29T07:44:54;12.02;;;5.63;;
78108;SDS011;67354;48.068;11.612;2023-01-29T07:47:20;10.83;;;5.70;;
78108;SDS011;67354;48.068;11.612;2023-01-29T07:49:45;9.35;;;5.55;;
78108;SDS011;67354;48.068;11.612;2023-01-29T07:52:10;8.73;;;5.10;;
78108;SDS011;67354;48.068;11.612;2023-01-29T07:54:36;10.93;;;5.70;;
78108;SDS011;67354;48.068;11.612;2023-01-29T07:57:01;13.50;;;7.57;;
78108;SDS011;67354;48.068;11.612;2023-01-29T07:59:26;15.13;;;9.33;;
78108;SDS011;67354;48.068;11.612;2023-01-29T08:01:52;14.87;;;8.33;;
78108;SDS011;67354;48.068;11.612;2023-01-29T08:04:17;17.50;;;9.97;;
78108;SDS011;67354;48.068;11.612;2023-01-29T08:06:42;13.67;;;7.63;;
78108;SDS011;67354;48.068;11.612;2023-01-29T08:09:08;10.93;;;6.13;;
78108;SDS011;67354;48.068;11.612;2023-01-29T08:11:34;12.77;;;6.50;;
78108;SDS011;67354;48.068;11.612;2023-01-29T08:13:59;16.90;;;9.50;;
78108;SDS011;67354;48.068;11.612;2023-01-29T08:16:25;18.87;;;10.60;;
78108;SDS011;67354;48.068;11.612;2023-01-29T08:18:50;20.85;;;10.00;;
78108;SDS011;67354;48.068;11.612;2023-01-29T08:21:15;17.00;;;9.50;;
78108;SDS011;67354;48.068;11.612;2023-01-29T08:23:41;19.75;;;10.15;;
78108;SDS011;67354;48.068;11.612;2023-01-29T08:26:06;17.40;;;9.90;;
78108;SDS011;67354;48.068;11.612;2023-01-29T08:28:32;22.35;;;11.27;;
78108;SDS011;67354;48.068;11.612;2023-01-29T08:30:57;19.67;;;11.20;;
78108;SDS011;67354;48.068;11.612;2023-01-29T08:33:23;23.60;;;10.83;;
78108;SDS011;67354;48.068;11.612;2023-01-29T08:35:49;24.67;;;11.95;;
78108;SDS011;67354;48.068;11.612;2023-01-29T08:38:15;23.92;;;12.23;;
78108;SDS011;67354;48.068;11.612;2023-01-29T08:40:41;19.13;;;11.23;;
78108;SDS011;67354;48.068;11.612;2023-01-29T08:43:07;21.50;;;11.68;;
78108;SDS011;67354;48.068;11.612;2023-01-29T08:45:34;24.40;;;11.93;;
78108;SDS011;67354;48.068;11.612;2023-01-29T08:48:01;21.80;;;11.32;;
78108;SDS011;67354;48.068;11.612;2023-01-29T08:50:27;24.17;;;11.43;;
78108;SDS011;67354;48.068;11.612;2023-01-29T08:52:58;17.42;;;8.85;;
78108;SDS011;67354;48.068;11.612;2023-01-29T08:55:24;12.07;;;7.20;;
78108;SDS011;67354;48.068;11.612;2023-01-29T08:57:50;13.10;;;7.45;;
78108;SDS011;67354;48.068;11.612;2023-01-29T09:00:15;10.23;;;5.63;;
78108;SDS011;67354;48.068;11.612;2023-01-29T09:02:44;11.73;;;7.03;;
78108;SDS011;67354;48.068;11.612;2023-01-29T09:05:09;13.13;;;7.27;;
78108;SDS011;67354;48.068;11.612;2023-01-29T09:07:34;12.18;;;7.43;;
78108;SDS011;67354;48.068;11.612;2023-01-29T09:10:00;15.00;;;7.53;;
78108;SDS011;67354;48.068;11.612;2023-01-29T09:12:25;13.65;;;7.15;;
78108;SDS011;67354;48.068;11.612;2023-01-29T09:14:51;11.63;;;6.68;;
78108;SDS011;67354;48.068;11.612;2023-01-29T09:17:16;12.63;;;7.77;;
78108;SDS011;67354;48.068;11.612;2023-01-29T09:19:41;14.05;;;7.25;;
78108;SDS011;67354;48.068;11.612;2023-01-29T09:22:07;12.00;;;6.90;;
78108;SDS011;67354;48.068;11.612;2023-01-29T09:24:32;13.77;;;7.03;;
78108;SDS011;67354;48.068;11.612;2023-01-29T09:26:59;12.10;;;6.97;;
78108;SDS011;67354;48.068;11.612;2023-01-29T09:29:24;10.75;;;5.60;;
78108;SDS011;67354;48.068;11.612;2023-01-29T09:31:50;9.83;;;5.23;;
78108;SDS011;67354;48.068;11.612;2023-01-29T09:34:15;9.57;;;4.87;;
78108;SDS011;67354;48.068;11.612;2023-01-29T09:36:40;10.07;;;5.35;;
78108;SDS011;67354;48.068;11.612;2023-01-29T09:39:06;12.50;;;6.33;;
78108;SDS011;67354;48.068;11.612;2023-01-29T09:43:58;10.30;;;5.30;;
78108;SDS011;67354;48.068;11.612;2023-01-29T09:49:28;11.95;;;5.78;;
78108;SDS011;67354;48.068;11.612;2023-01-29T09:51:55;11.00;;;5.75;;
78108;SDS011;67354;48.068;11.612;2023-01-29T09:54:24;10.88;;;6.15;;
78108;SDS011;67354;48.068;11.612;2023-01-29T09:56:54;11.73;;;7.03;;
78108;SDS011;67354;48.068;11.612;2023-01-29T09:59:21;9.90;;;6.28;;
78108;SDS011;67354;48.068;11.612;2023-01-29T10:12:52;10.25;;;5.97;;
78108;SDS011;67354;48.068;11.612;2023-01-29T10:18:30;8.98;;;5.57;;
78108;SDS011;67354;48.068;11.612;2023-01-29T10:23:40;8.95;;;6.05;;
78108;SDS011;67354;48.068;11.612;2023-01-29T10:26:11;8.57;;;5.90;;
78108;SDS011;67354;48.068;11.612;2023-01-29T10:28:44;8.57;;;5.53;;
78108;SDS011;67354;48.068;11.612;2023-01-29T10:31:18;8.15;;;5.40;;
78108;SDS011;67354;48.068;11.612;2023-01-29T10:33:50;7.75;;;4.95;;
78108;SDS011;67354;48.068;11.612;2023-01-29T10:36:21;12.05;;;6.78;;
78108;SDS011;67354;48.068;11.612;2023-01-29T10:38:51;9.90;;;5.68;;
78108;SDS011;67354;48.068;11.612;2023-01-29T10:54:36;11.33;;;6.27;;
78108;SDS011;67354;48.068;11.612;2023-01-29T10:59:48;9.88;;;6.50;;
78108;SDS011;67354;48.068;11.612;2023-01-29T11:02:24;7.40;;;4.32;;
78108;SDS011;67354;48.068;11.612;2023-01-29T11:04:49;7.47;;;5.13;;
78108;SDS011;67354;48.068;11.612;2023-01-29T11:07:16;9.50;;;5.80;;
78108;SDS011;67354;48.068;11.612;2023-01-29T11:12:32;8.05;;;4.93;;
78108;SDS011;67354;48.068;11.612;2023-01-29T11:17:30;9.75;;;6.30;;
78108;SDS011;67354;48.068;11.612;2023-01-29T11:19:55;9.77;;;6.23;;
78108;SDS011;67354;48.068;11.612;2023-01-29T11:22:21;10.50;;;5.90;;
78108;SDS011;67354;48.068;11.612;2023-01-29T11:27:41;9.38;;;5.60;;
78108;SDS011;67354;48.068;11.612;2023-01-29T11:33:21;10.35;;;7.22;;
78108;SDS011;67354;48.068;11.612;2023-01-29T11:35:50;9.88;;;6.05;;
78108;SDS011;67354;48.068;11.612;2023-01-29T11:40:49;9.27;;;6.30;;
78108;SDS011;67354;48.068;11.612;2023-01-29T11:45:44;8.43;;;5.78;;
78108;SDS011;67354;48.068;11.612;2023-01-29T11:48:13;11.90;;;7.15;;
78108;SDS011;67354;48.068;11.612;2023-01-29T11:50:49;11.63;;;6.82;;
78108;SDS011;67354;48.068;11.612;2023-01-29T11:53:23;10.93;;;6.35;;
78108;SDS011;67354;48.068;11.612;2023-01-29T11:55:50;8.93;;;6.00;;
78108;SDS011;67354;48.068;11.612;2023-01-29T11:58:24;11.13;;;6.67;;
78108;SDS011;67354;48.068;11.612;2023-01-29T12:00:51;10.55;;;6.70;;
78108;SDS011;67354;48.068;11.612;2023-01-29T12:06:00;9.10;;;6.13;;
78108;SDS011;67354;48.068;11.612;2023-01-29T12:08:38;9.30;;;6.40;;
78108;SDS011;67354;48.068;11.612;2023-01-29T12:11:22;9.65;;;6.18;;
78108;SDS011;67354;48.068;11.612;2023-01-29T12:13:56;8.75;;;5.90;;
78108;SDS011;67354;48.068;11.612;2023-01-29T12:16:39;10.40;;;5.57;;
78108;SDS011;67354;48.068;11.612;2023-01-29T12:21:46;12.77;;;6.53;;
78108;SDS011;67354;48.068;11.612;2023-01-29T12:24:32;10.13;;;5.25;;
78108;SDS011;67354;48.068;11.612;2023-01-29T12:27:03;10.63;;;6.47;;
78108;SDS011;67354;48.068;11.612;2023-01-29T12:40:26;9.40;;;5.70;;
78108;SDS011;67354;48.068;11.612;2023-01-29T12:43:16;11.10;;;5.88;;
78108;SDS011;67354;48.068;11.612;2023-01-29T12:45:42;9.25;;;5.97;;
78108;SDS011;67354;48.068;11.612;2023-01-29T12:48:11;7.93;;;5.78;;
78108;SDS011;67354;48.068;11.612;2023-01-29T12:50:38;11.13;;;5.93;;
78108;SDS011;67354;48.068;11.612;2023-01-29T12:53:06;9.10;;;5.47;;
78108;SDS011;67354;48.068;11.612;2023-01-29T12:55:52;10.48;;;6.50;;
78108;SDS011;67354;48.068;11.612;2023-01-29T12:58:23;9.00;;;5.15;;
78108;SDS011;67354;48.068;11.612;2023-01-29T13:00:55;9.45;;;5.75;;
78108;SDS011;67354;48.068;11.612;2023-01-29T13:03:26;9.93;;;5.55;;
78108;SDS011;67354;48.068;11.612;2023-01-29T13:06:13;8.93;;;5.55;;
78108;SDS011;67354;48.068;11.612;2023-01-29T13:08:45;7.45;;;5.07;;
78108;SDS011;67354;48.068;11.612;2023-01-29T13:11:26;8.48;;;5.03;;
78108;SDS011;67354;48.068;11.612;2023-01-29T13:14:30;9.02;;;5.53;;
78108;SDS011;67354;48.068;11.612;2023-01-29T13:16:48;8.98;;;5.05;;
78108;SDS011;67354;48.068;11.612;2023-01-29T13:19:24;9.27;;;5.57;;
78108;SDS011;67354;48.068;11.612;2023-01-29T13:22:54;9.38;;;6.07;;
78108;SDS011;67354;48.068;11.612;2023-01-29T13:25:02;9.73;;;5.25;;
78108;SDS011;67354;48.068;11.612;2023-01-29T13:27:28;9.43;;;5.85;;
78108;SDS011;67354;48.068;11.612;2023-01-29T13:29:55;9.70;;;5.65;;
78108;SDS011;67354;48.068;11.612;2023-01-29T13:32:28;10.30;;;5.85;;
78108;SDS011;67354;48.068;11.612;2023-01-29T13:34:56;9.77;;;5.97;;
78108;SDS011;67354;48.068;11.612;2023-01-29T13:39:58;7.85;;;5.20;;
78108;SDS011;67354;48.068;11.612;2023-01-29T13:42:46;9.65;;;5.50;;
78108;SDS011;67354;48.068;11.612;2023-01-29T13:45:33;7.57;;;4.80;;
78108;SDS011;67354;48.068;11.612;2023-01-29T13:48:10;7.68;;;5.32;;
78108;SDS011;67354;48.068;11.612;2023-01-29T13:51:01;8.80;;;5.38;;
78108;SDS011;67354;48.068;11.612;2023-01-29T13:53:28;7.43;;;5.13;;
78108;SDS011;67354;48.068;11.612;2023-01-29T13:58:53;9.43;;;5.80;;
78108;SDS011;67354;48.068;11.612;2023-01-29T14:01:58;9.38;;;5.28;;
78108;SDS011;67354;48.068;11.612;2023-01-29T14:04:25;7.55;;;4.80;;
78108;SDS011;67354;48.068;11.612;2023-01-29T14:07:04;8.77;;;5.07;;
78108;SDS011;67354;48.068;11.612;2023-01-29T14:10:00;9.65;;;5.90;;
78108;SDS011;67354;48.068;11.612;2023-01-29T14:12:31;9.40;;;5.00;;
78108;SDS011;67354;48.068;11.612;2023-01-29T14:17:28;9.80;;;5.38;;
78108;SDS011;67354;48.068;11.612;2023-01-29T14:19:56;7.80;;;5.43;;
78108;SDS011;67354;48.068;11.612;2023-01-29T14:22:26;9.27;;;5.90;;
78108;SDS011;67354;48.068;11.612;2023-01-29T14:24:52;8.27;;;4.88;;
78108;SDS011;67354;48.068;11.612;2023-01-29T14:27:20;9.90;;;5.63;;
78108;SDS011;67354;48.068;11.612;2023-01-29T14:29:47;7.82;;;5.40;;
78108;SDS011;67354;48.068;11.612;2023-01-29T14:32:21;8.75;;;5.50;;
78108;SDS011;67354;48.068;11.612;2023-01-29T14:37:34;10.32;;;6.35;;
78108;SDS011;67354;48.068;11.612;2023-01-29T14:40:12;9.35;;;5.70;;
78108;SDS011;67354;48.068;11.612;2023-01-29T14:45:34;9.70;;;5.65;;
78108;SDS011;67354;48.068;11.612;2023-01-29T14:50:37;10.13;;;5.85;;
78108;SDS011;67354;48.068;11.612;2023-01-29T14:56:28;12.57;;;6.85;;
78108;SDS011;67354;48.068;11.612;2023-01-29T14:59:02;9.27;;;5.68;;
78108;SDS011;67354;48.068;11.612;2023-01-29T15:01:36;10.93;;;6.50;;
78108;SDS011;67354;48.068;11.612;2023-01-29T15:04:03;8.93;;;6.55;;
78108;SDS011;67354;48.068;11.612;2023-01-29T15:11:50;11.85;;;6.55;;
78108;SDS011;67354;48.068;11.612;2023-01-29T15:14:23;10.98;;;5.88;;
78108;SDS011;67354;48.068;11.612;2023-01-29T15:19:41;9.52;;;5.78;;
78108;SDS011;67354;48.068;11.612;2023-01-29T15:22:21;9.65;;;6.68;;
78108;SDS011;67354;48.068;11.612;2023-01-29T15:25:06;9.93;;;6.40;;
78108;SDS011;67354;48.068;11.612;2023-01-29T15:27:37;10.63;;;6.05;;
78108;SDS011;67354;48.068;11.612;2023-01-29T15:30:06;9.32;;;5.68;;
78108;SDS011;67354;48.068;11.612;2023-01-29T15:32:34;10.68;;;5.82;;
78108;SDS011;67354;48.068;11.612;2023-01-29T15:35:00;9.90;;;6.15;;
78108;SDS011;67354;48.068;11.612;2023-01-29T15:37:34;9.45;;;5.65;;
78108;SDS011;67354;48.068;11.612;2023-01-29T15:40:01;9.95;;;6.35;;
78108;SDS011;67354;48.068;11.612;2023-01-29T15:42:27;9.63;;;5.97;;
78108;SDS011;67354;48.068;11.612;2023-01-29T15:44:53;10.43;;;6.18;;
78108;SDS011;67354;48.068;11.612;2023-01-29T15:47:23;10.95;;;7.03;;
78108;SDS011;67354;48.068;11.612;2023-01-29T15:49:51;11.88;;;7.13;;
78108;SDS011;67354;48.068;11.612;2023-01-29T15:52:18;11.52;;;6.57;;
78108;SDS011;67354;48.068;11.612;2023-01-29T15:54:46;10.57;;;6.50;;
78108;SDS011;67354;48.068;11.612;2023-01-29T15:57:18;8.93;;;5.95;;
78108;SDS011;67354;48.068;11.612;2023-01-29T15:59:46;9.98;;;6.72;;
78108;SDS011;67354;48.068;11.612;2023-01-29T16:05:02;11.82;;;6.68;;
78108;SDS011;67354;48.068;11.612;2023-01-29T16:07:29;8.77;;;6.03;;
78108;SDS011;67354;48.068;11.612;2023-01-29T16:09:55;9.77;;;6.28;;
78108;SDS011;67354;48.068;11.612;2023-01-29T16:12:21;10.27;;;6.80;;
78108;SDS011;67354;48.068;11.612;2023-01-29T16:14:47;11.95;;;7.07;;
78108;SDS011;67354;48.068;11.612;2023-01-29T16:17:26;10.07;;;6.90;;
78108;SDS011;67354;48.068;11.612;2023-01-29T16:19:59;10.88;;;7.05;;
78108;SDS011;67354;48.068;11.612;2023-01-29T16:22:33;16.42;;;8.10;;
78108;SDS011;67354;48.068;11.612;2023-01-29T16:25:03;12.43;;;8.45;;
78108;SDS011;67354;48.068;11.612;2023-01-29T16:27:34;12.35;;;8.57;;
78108;SDS011;67354;48.068;11.612;2023-01-29T16:30:00;11.27;;;6.93;;
78108;SDS011;67354;48.068;11.612;2023-01-29T16:32:26;10.48;;;6.40;;
78108;SDS011;67354;48.068;11.612;2023-01-29T16:34:55;10.98;;;7.18;;
78108;SDS011;67354;48.068;11.612;2023-01-29T16:37:22;12.35;;;7.18;;
78108;SDS011;67354;48.068;11.612;2023-01-29T16:39:53;10.77;;;6.93;;
78108;SDS011;67354;48.068;11.612;2023-01-29T16:42:29;10.53;;;7.10;;
78108;SDS011;67354;48.068;11.612;2023-01-29T16:45:01;10.05;;;5.93;;
78108;SDS011;67354;48.068;11.612;2023-01-29T16:47:29;9.43;;;6.10;;
78108;SDS011;67354;48.068;11.612;2023-01-29T16:50:20;10.60;;;6.40;;
78108;SDS011;67354;48.068;11.612;2023-01-29T16:55:31;10.57;;;6.38;;
78108;SDS011;67354;48.068;11.612;2023-01-29T16:57:59;11.90;;;6.35;;
78108;SDS011;67354;48.068;11.612;2023-01-29T17:00:28;10.35;;;6.40;;
78108;SDS011;67354;48.068;11.612;2023-01-29T17:02:55;10.77;;;6.55;;
78108;SDS011;67354;48.068;11.612;2023-01-29T17:05:25;9.40;;;6.55;;
78108;SDS011;67354;48.068;11.612;2023-01-29T17:07:54;10.85;;;6.25;;
78108;SDS011;67354;48.068;11.612;2023-01-29T17:10:20;12.73;;;6.40;;
78108;SDS011;67354;48.068;11.612;2023-01-29T17:18:19;11.65;;;6.63;;
78108;SDS011;67354;48.068;11.612;2023-01-29T17:20:47;8.77;;;5.85;;